AAL598 KPHL-CYOW
Flight info
| Callsign | AAL598 |
|---|---|
| Flight time | 0h 54m |
| Altitude | 29000 |
| Route | PTW DCT CHLSE V499 CFB T335 SYR/N0435F390 DCT ART DEANS4 |
| Aircraft | B737/M-SDE2E3FGHIRWXY/LB1 |
Departure
| Time | 2026-05-05 03:43 |
|---|---|
| Airport | Philadelphia International Airport (KPHL) |
Arrival
| Time | 2026-05-05 04:38 |
|---|---|
| Airport | Ottawa Macdonald-Cartier International Airport (CYOW) |
| Time | Latitude | Longitude | Altitude | Speed | Heading |
|---|---|---|---|---|---|
| 2026-05-05 03:30 | 39.87293 | -75.25263 | 24 ft | 0 kts | 97° |
| 2026-05-05 03:36 | 39.87293 | -75.25264 | 24 ft | 2 kts | 97° |
| 2026-05-05 03:36 | 39.87295 | -75.25287 | 26 ft | 3 kts | 97° |
| 2026-05-05 03:37 | 39.87297 | -75.25310 | 26 ft | 3 kts | 97° |
| 2026-05-05 03:37 | 39.87299 | -75.25332 | 29 ft | 2 kts | 97° |
| 2026-05-05 03:37 | 39.87303 | -75.25354 | 30 ft | 2 kts | 139° |
| 2026-05-05 03:37 | 39.87313 | -75.25361 | 29 ft | 0 kts | 187° |
| 2026-05-05 03:38 | 39.87312 | -75.25361 | 27 ft | 0 kts | 193° |
| 2026-05-05 03:38 | 39.87277 | -75.25367 | 26 ft | 12 kts | 187° |
| 2026-05-05 03:38 | 39.87168 | -75.25367 | 27 ft | 17 kts | 160° |
| 2026-05-05 03:38 | 39.87133 | -75.25239 | 24 ft | 16 kts | 88° |
| 2026-05-05 03:39 | 39.87151 | -75.25096 | 24 ft | 16 kts | 75° |
| 2026-05-05 03:39 | 39.87145 | -75.24953 | 26 ft | 16 kts | 116° |
| 2026-05-05 03:39 | 39.87143 | -75.24812 | 24 ft | 16 kts | 79° |
| 2026-05-05 03:39 | 39.87163 | -75.24674 | 25 ft | 15 kts | 79° |
| 2026-05-05 03:40 | 39.87185 | -75.24543 | 24 ft | 15 kts | 74° |
| 2026-05-05 03:40 | 39.87218 | -75.24390 | 29 ft | 21 kts | 74° |
| 2026-05-05 03:40 | 39.87256 | -75.24205 | 24 ft | 21 kts | 76° |
| 2026-05-05 03:40 | 39.87291 | -75.24019 | 28 ft | 21 kts | 76° |
| 2026-05-05 03:41 | 39.87325 | -75.23840 | 24 ft | 20 kts | 74° |
| 2026-05-05 03:41 | 39.87365 | -75.23648 | 27 ft | 23 kts | 75° |
| 2026-05-05 03:41 | 39.87408 | -75.23445 | 26 ft | 23 kts | 75° |
| 2026-05-05 03:41 | 39.87448 | -75.23250 | 26 ft | 22 kts | 75° |
| 2026-05-05 03:42 | 39.87490 | -75.23045 | 28 ft | 25 kts | 75° |
| 2026-05-05 03:42 | 39.87532 | -75.22831 | 24 ft | 23 kts | 77° |
| 2026-05-05 03:42 | 39.87568 | -75.22620 | 24 ft | 24 kts | 83° |
| 2026-05-05 03:42 | 39.87469 | -75.22566 | 27 ft | 20 kts | 244° |
| 2026-05-05 03:43 | 39.87429 | -75.22738 | 27 ft | 20 kts | 253° |
| 2026-05-05 03:43 | 39.87330 | -75.23244 | 28 ft | 106 kts | 256° |
| 2026-05-05 03:43 | 39.87074 | -75.24527 | 117 ft | 179 kts | 252° |
| 2026-05-05 03:43 | 39.86740 | -75.26252 | 765 ft | 206 kts | 252° |
| 2026-05-05 03:44 | 39.86060 | -75.27956 | 1507 ft | 221 kts | 226° |
| 2026-05-05 03:44 | 39.84754 | -75.29026 | 2381 ft | 232 kts | 197° |
| 2026-05-05 03:44 | 39.83109 | -75.28817 | 3271 ft | 252 kts | 162° |
| 2026-05-05 03:44 | 39.81741 | -75.27271 | 4174 ft | 277 kts | 128° |
| 2026-05-05 03:45 | 39.81138 | -75.24789 | 4950 ft | 307 kts | 95° |
| 2026-05-05 03:45 | 39.81612 | -75.22034 | 5996 ft | 321 kts | 62° |
| 2026-05-05 03:45 | 39.83058 | -75.19861 | 7297 ft | 317 kts | 35° |
| 2026-05-05 03:45 | 39.84851 | -75.18224 | 8645 ft | 314 kts | 29° |
| 2026-05-05 03:46 | 39.86787 | -75.17183 | 10168 ft | 290 kts | 1° |
| 2026-05-05 03:46 | 39.88727 | -75.17484 | 11331 ft | 284 kts | 334° |
| 2026-05-05 03:46 | 39.90365 | -75.19022 | 11741 ft | 305 kts | 306° |
| 2026-05-05 03:46 | 39.91587 | -75.21417 | 12141 ft | 330 kts | 307° |
| 2026-05-05 03:47 | 39.93240 | -75.23568 | 12989 ft | 341 kts | 316° |
| 2026-05-05 03:47 | 39.95042 | -75.25623 | 13943 ft | 347 kts | 317° |
| 2026-05-05 03:47 | 39.96891 | -75.27687 | 14847 ft | 353 kts | 317° |
| 2026-05-05 03:47 | 39.98746 | -75.29746 | 15770 ft | 357 kts | 316° |
| 2026-05-05 03:48 | 40.00651 | -75.31862 | 16639 ft | 363 kts | 316° |
| 2026-05-05 03:48 | 40.02589 | -75.34019 | 17489 ft | 370 kts | 316° |
| 2026-05-05 03:48 | 40.04621 | -75.36132 | 18318 ft | 379 kts | 323° |
| 2026-05-05 03:48 | 40.06906 | -75.37909 | 19102 ft | 384 kts | 327° |
| 2026-05-05 03:49 | 40.09256 | -75.39604 | 19935 ft | 387 kts | 328° |
| 2026-05-05 03:49 | 40.11635 | -75.41291 | 20755 ft | 391 kts | 328° |
| 2026-05-05 03:49 | 40.14035 | -75.42999 | 21529 ft | 395 kts | 328° |
| 2026-05-05 03:49 | 40.16461 | -75.44740 | 22258 ft | 400 kts | 328° |
| 2026-05-05 03:50 | 40.18909 | -75.46514 | 23025 ft | 404 kts | 328° |
| 2026-05-05 03:50 | 40.21373 | -75.48311 | 23739 ft | 407 kts | 328° |
| 2026-05-05 03:50 | 40.23854 | -75.50129 | 24354 ft | 410 kts | 328° |
| 2026-05-05 03:50 | 40.26351 | -75.51965 | 24971 ft | 414 kts | 328° |
| 2026-05-05 03:51 | 40.28868 | -75.53819 | 25567 ft | 417 kts | 328° |
| 2026-05-05 03:51 | 40.31407 | -75.55692 | 26147 ft | 421 kts | 328° |
| 2026-05-05 03:51 | 40.33969 | -75.57584 | 26722 ft | 424 kts | 328° |
| 2026-05-05 03:51 | 40.36548 | -75.59490 | 27278 ft | 427 kts | 329° |
| 2026-05-05 03:52 | 40.39150 | -75.61415 | 27819 ft | 430 kts | 329° |
| 2026-05-05 03:52 | 40.41765 | -75.63350 | 28394 ft | 432 kts | 329° |
| 2026-05-05 03:52 | 40.44381 | -75.65288 | 28910 ft | 433 kts | 329° |
| 2026-05-05 03:52 | 40.47016 | -75.67242 | 28900 ft | 434 kts | 328° |
| 2026-05-05 03:53 | 40.52319 | -75.71036 | 28905 ft | 443 kts | 335° |
| 2026-05-05 03:53 | 40.55278 | -75.72303 | 28916 ft | 454 kts | 344° |
| 2026-05-05 03:53 | 40.57503 | -75.72969 | 28918 ft | 459 kts | 345° |
| 2026-05-05 03:54 | 40.63927 | -75.74753 | 28898 ft | 466 kts | 346° |
| 2026-05-05 03:54 | 40.70257 | -75.76523 | 28905 ft | 464 kts | 345° |
| 2026-05-05 03:55 | 40.76558 | -75.78346 | 28895 ft | 463 kts | 345° |
| 2026-05-05 03:55 | 40.82849 | -75.80197 | 28889 ft | 463 kts | 345° |
| 2026-05-05 03:56 | 40.89140 | -75.82057 | 28885 ft | 463 kts | 345° |
| 2026-05-05 03:56 | 40.95431 | -75.83918 | 28885 ft | 464 kts | 345° |
| 2026-05-05 03:57 | 41.01690 | -75.85771 | 28870 ft | 464 kts | 345° |
| 2026-05-05 03:57 | 41.07982 | -75.87638 | 28869 ft | 463 kts | 345° |
| 2026-05-05 03:58 | 41.14271 | -75.89507 | 28873 ft | 463 kts | 344° |
| 2026-05-05 03:58 | 41.20559 | -75.91380 | 28863 ft | 463 kts | 344° |
| 2026-05-05 03:59 | 41.26848 | -75.93257 | 28853 ft | 463 kts | 344° |
| 2026-05-05 03:59 | 41.33134 | -75.95137 | 28849 ft | 463 kts | 344° |
| 2026-05-05 04:00 | 41.39415 | -75.97018 | 28847 ft | 463 kts | 344° |
| 2026-05-05 04:00 | 41.44643 | -75.98588 | 28845 ft | 463 kts | 344° |
| 2026-05-05 04:01 | 41.50933 | -76.00479 | 28829 ft | 463 kts | 344° |
| 2026-05-05 04:01 | 41.57222 | -76.02374 | 28852 ft | 463 kts | 343° |
| 2026-05-05 04:02 | 41.63511 | -76.04273 | 28833 ft | 464 kts | 343° |
| 2026-05-05 04:02 | 41.69807 | -76.06178 | 28829 ft | 464 kts | 343° |
| 2026-05-05 04:03 | 41.76101 | -76.08086 | 28842 ft | 464 kts | 343° |
| 2026-05-05 04:03 | 41.82394 | -76.09997 | 28825 ft | 464 kts | 343° |
| 2026-05-05 04:04 | 41.88686 | -76.11913 | 28809 ft | 463 kts | 343° |
| 2026-05-05 04:04 | 41.94976 | -76.13830 | 28822 ft | 463 kts | 343° |
| 2026-05-05 04:05 | 42.01387 | -76.14950 | 28816 ft | 471 kts | 358° |
| 2026-05-05 04:05 | 42.07939 | -76.14648 | 28815 ft | 471 kts | 358° |
| 2026-05-05 04:06 | 42.14495 | -76.14376 | 28816 ft | 471 kts | 358° |
| 2026-05-05 04:06 | 42.21009 | -76.14105 | 28831 ft | 471 kts | 358° |
| 2026-05-05 04:07 | 42.27568 | -76.13829 | 28827 ft | 471 kts | 358° |
| 2026-05-05 04:07 | 42.34125 | -76.13550 | 28817 ft | 471 kts | 358° |
| 2026-05-05 04:08 | 42.40679 | -76.13270 | 28821 ft | 471 kts | 358° |
| 2026-05-05 04:08 | 42.47220 | -76.12989 | 28800 ft | 471 kts | 358° |
| 2026-05-05 04:09 | 42.53771 | -76.12709 | 28787 ft | 470 kts | 358° |
| 2026-05-05 04:09 | 42.60312 | -76.12428 | 28811 ft | 470 kts | 357° |
| 2026-05-05 04:10 | 42.66852 | -76.12147 | 28779 ft | 470 kts | 357° |
| 2026-05-05 04:10 | 42.73390 | -76.11865 | 28784 ft | 469 kts | 357° |
| 2026-05-05 04:11 | 42.79919 | -76.11583 | 28782 ft | 470 kts | 356° |
| 2026-05-05 04:11 | 42.86455 | -76.11300 | 28761 ft | 470 kts | 356° |
| 2026-05-05 04:12 | 42.92988 | -76.11016 | 28743 ft | 469 kts | 356° |
| 2026-05-05 04:12 | 42.99514 | -76.10732 | 28760 ft | 469 kts | 356° |
| 2026-05-05 04:13 | 43.05998 | -76.10450 | 28747 ft | 469 kts | 356° |
| 2026-05-05 04:13 | 43.12564 | -76.10163 | 28738 ft | 469 kts | 356° |
| 2026-05-05 04:14 | 43.19090 | -76.09877 | 28763 ft | 469 kts | 356° |
| 2026-05-05 04:14 | 43.25620 | -76.09591 | 28739 ft | 469 kts | 356° |
| 2026-05-05 04:15 | 43.32102 | -76.09306 | 28734 ft | 469 kts | 356° |
| 2026-05-05 04:15 | 43.38635 | -76.09018 | 28734 ft | 469 kts | 356° |
| 2026-05-05 04:16 | 43.41855 | -76.08872 | 28591 ft | 458 kts | 356° |
| 2026-05-05 04:16 | 43.45015 | -76.08727 | 28126 ft | 452 kts | 355° |
| 2026-05-05 04:16 | 43.48162 | -76.08588 | 27703 ft | 453 kts | 355° |
| 2026-05-05 04:16 | 43.51318 | -76.08453 | 27290 ft | 456 kts | 355° |
| 2026-05-05 04:17 | 43.54495 | -76.08316 | 26868 ft | 457 kts | 355° |
| 2026-05-05 04:17 | 43.57676 | -76.08178 | 26488 ft | 458 kts | 355° |
| 2026-05-05 04:17 | 43.60866 | -76.08037 | 26075 ft | 458 kts | 355° |
| 2026-05-05 04:17 | 43.64053 | -76.07895 | 25676 ft | 458 kts | 356° |
| 2026-05-05 04:18 | 43.67242 | -76.07752 | 25284 ft | 458 kts | 356° |
| 2026-05-05 04:18 | 43.70431 | -76.07609 | 24890 ft | 458 kts | 356° |
| 2026-05-05 04:18 | 43.73614 | -76.07467 | 24494 ft | 457 kts | 356° |
| 2026-05-05 04:18 | 43.76748 | -76.07322 | 24062 ft | 445 kts | 356° |
| 2026-05-05 04:19 | 43.79462 | -76.07196 | 23681 ft | 434 kts | 355° |
| 2026-05-05 04:19 | 43.82442 | -76.07061 | 23258 ft | 424 kts | 355° |
| 2026-05-05 04:19 | 43.85367 | -76.06932 | 22763 ft | 417 kts | 355° |
| 2026-05-05 04:19 | 43.88259 | -76.06807 | 22267 ft | 414 kts | 355° |
| 2026-05-05 04:20 | 43.91132 | -76.06622 | 21791 ft | 413 kts | 358° |
| 2026-05-05 04:20 | 43.93981 | -76.06210 | 21251 ft | 409 kts | 1° |
| 2026-05-05 04:20 | 43.96734 | -76.05698 | 20796 ft | 399 kts | 1° |
| 2026-05-05 04:20 | 43.99455 | -76.05159 | 20371 ft | 392 kts | 1° |
| 2026-05-05 04:21 | 44.02145 | -76.04634 | 19954 ft | 391 kts | 1° |
| 2026-05-05 04:21 | 44.04863 | -76.04123 | 19547 ft | 397 kts | 1° |
| 2026-05-05 04:21 | 44.07615 | -76.03620 | 19139 ft | 400 kts | 1° |
| 2026-05-05 04:21 | 44.10377 | -76.03122 | 18719 ft | 400 kts | 1° |
| 2026-05-05 04:22 | 44.13132 | -76.02628 | 18298 ft | 399 kts | 1° |
| 2026-05-05 04:22 | 44.15879 | -76.02138 | 17887 ft | 397 kts | 1° |
| 2026-05-05 04:22 | 44.18619 | -76.01651 | 17402 ft | 396 kts | 1° |
| 2026-05-05 04:22 | 44.21338 | -76.01167 | 16921 ft | 390 kts | 1° |
| 2026-05-05 04:23 | 44.24000 | -76.00691 | 16442 ft | 381 kts | 1° |
| 2026-05-05 04:23 | 44.26600 | -76.00225 | 15977 ft | 373 kts | 1° |
| 2026-05-05 04:23 | 44.29145 | -75.99770 | 15535 ft | 365 kts | 1° |
| 2026-05-05 04:23 | 44.31640 | -75.99325 | 15106 ft | 358 kts | 1° |
| 2026-05-05 04:24 | 44.34086 | -75.98889 | 14702 ft | 351 kts | 1° |
| 2026-05-05 04:24 | 44.36490 | -75.98462 | 14285 ft | 345 kts | 1° |
| 2026-05-05 04:24 | 44.38860 | -75.98040 | 13876 ft | 341 kts | 1° |
| 2026-05-05 04:25 | 44.43523 | -75.97212 | 13021 ft | 334 kts | 1° |
| 2026-05-05 04:25 | 44.45813 | -75.96803 | 12565 ft | 330 kts | 1° |
| 2026-05-05 04:25 | 44.48074 | -75.96399 | 12122 ft | 326 kts | 1° |
| 2026-05-05 04:25 | 44.50316 | -75.95998 | 11685 ft | 323 kts | 1° |
| 2026-05-05 04:26 | 44.52514 | -75.95606 | 11272 ft | 322 kts | 1° |
| 2026-05-05 04:26 | 44.54735 | -75.95209 | 10856 ft | 321 kts | 1° |
| 2026-05-05 04:26 | 44.56950 | -75.94813 | 10444 ft | 321 kts | 1° |
| 2026-05-05 04:26 | 44.59163 | -75.94417 | 10025 ft | 321 kts | 2° |
| 2026-05-05 04:27 | 44.61375 | -75.94020 | 9617 ft | 321 kts | 2° |
| 2026-05-05 04:27 | 44.63586 | -75.93623 | 9170 ft | 319 kts | 2° |
| 2026-05-05 04:27 | 44.65804 | -75.93222 | 8778 ft | 315 kts | 2° |
| 2026-05-05 04:27 | 44.67931 | -75.92837 | 8412 ft | 310 kts | 2° |
| 2026-05-05 04:28 | 44.70060 | -75.92452 | 8045 ft | 307 kts | 2° |
| 2026-05-05 04:28 | 44.72164 | -75.92071 | 7699 ft | 304 kts | 1° |
| 2026-05-05 04:28 | 44.74251 | -75.91694 | 7403 ft | 300 kts | 1° |
| 2026-05-05 04:28 | 44.76340 | -75.91320 | 7160 ft | 305 kts | 1° |
| 2026-05-05 04:29 | 44.78466 | -75.90939 | 6930 ft | 310 kts | 1° |
| 2026-05-05 04:29 | 44.80609 | -75.90553 | 6683 ft | 311 kts | 1° |
| 2026-05-05 04:29 | 44.82753 | -75.90164 | 6426 ft | 310 kts | 1° |
| 2026-05-05 04:29 | 44.84885 | -75.89777 | 6189 ft | 309 kts | 1° |
| 2026-05-05 04:30 | 44.87015 | -75.89390 | 5934 ft | 307 kts | 1° |
| 2026-05-05 04:30 | 44.89111 | -75.89006 | 5666 ft | 301 kts | 1° |
| 2026-05-05 04:30 | 44.91195 | -75.88627 | 5430 ft | 303 kts | 0° |
| 2026-05-05 04:30 | 44.93290 | -75.88248 | 5186 ft | 305 kts | 0° |
| 2026-05-05 04:31 | 44.95392 | -75.87866 | 4929 ft | 302 kts | 0° |
| 2026-05-05 04:31 | 44.97453 | -75.87488 | 4669 ft | 295 kts | 0° |
| 2026-05-05 04:31 | 44.99471 | -75.87118 | 4413 ft | 290 kts | 360° |
| 2026-05-05 04:31 | 45.01453 | -75.86756 | 4152 ft | 285 kts | 360° |
| 2026-05-05 04:32 | 45.03405 | -75.86400 | 3905 ft | 281 kts | 360° |
| 2026-05-05 04:32 | 45.05328 | -75.86050 | 3644 ft | 277 kts | 359° |
| 2026-05-05 04:32 | 45.07227 | -75.85705 | 3390 ft | 273 kts | 360° |
| 2026-05-05 04:32 | 45.09101 | -75.85363 | 3159 ft | 270 kts | 359° |
| 2026-05-05 04:33 | 45.10940 | -75.85024 | 3014 ft | 262 kts | 358° |
| 2026-05-05 04:33 | 45.12709 | -75.84695 | 2943 ft | 251 kts | 358° |
| 2026-05-05 04:33 | 45.14395 | -75.84618 | 2938 ft | 231 kts | 338° |
| 2026-05-05 04:33 | 45.15920 | -75.85136 | 2981 ft | 223 kts | 334° |
| 2026-05-05 04:34 | 45.17429 | -75.85652 | 2977 ft | 222 kts | 334° |
| 2026-05-05 04:34 | 45.18935 | -75.86154 | 2976 ft | 222 kts | 334° |
| 2026-05-05 04:34 | 45.20456 | -75.86562 | 2945 ft | 228 kts | 348° |
| 2026-05-05 04:34 | 45.21974 | -75.86050 | 2963 ft | 227 kts | 19° |
| 2026-05-05 04:35 | 45.23212 | -75.84730 | 2932 ft | 223 kts | 50° |
| 2026-05-05 04:35 | 45.24170 | -75.82979 | 2903 ft | 229 kts | 52° |
| 2026-05-05 04:35 | 45.25077 | -75.81093 | 2634 ft | 231 kts | 57° |
| 2026-05-05 04:35 | 45.25924 | -75.79189 | 2332 ft | 225 kts | 58° |
| 2026-05-05 04:36 | 45.26748 | -75.77336 | 2031 ft | 213 kts | 57° |
| 2026-05-05 04:36 | 45.27521 | -75.75618 | 1776 ft | 204 kts | 58° |
| 2026-05-05 04:36 | 45.28240 | -75.73995 | 1568 ft | 186 kts | 61° |
| 2026-05-05 04:36 | 45.28904 | -75.72378 | 1351 ft | 186 kts | 59° |
| 2026-05-05 04:37 | 45.29601 | -75.70859 | 1158 ft | 180 kts | 59° |
| 2026-05-05 04:37 | 45.30270 | -75.69472 | 852 ft | 164 kts | 57° |
| 2026-05-05 04:37 | 45.30859 | -75.68153 | 571 ft | 151 kts | 59° |
| 2026-05-05 04:37 | 45.31409 | -75.66969 | 390 ft | 134 kts | 60° |
| 2026-05-05 04:38 | 45.31858 | -75.65942 | 368 ft | 112 kts | 59° |
| 2026-05-05 04:38 | 45.32088 | -75.65455 | 371 ft | 29 kts | 50° |
| 2026-05-05 04:38 | 45.32235 | -75.65278 | 373 ft | 27 kts | 34° |
| 2026-05-05 04:38 | 45.32393 | -75.65281 | 374 ft | 24 kts | 320° |
| 2026-05-05 04:39 | 45.32395 | -75.65488 | 383 ft | 23 kts | 242° |
| 2026-05-05 04:39 | 45.32298 | -75.65656 | 380 ft | 22 kts | 216° |
| 2026-05-05 04:39 | 45.32203 | -75.65819 | 377 ft | 21 kts | 238° |
| 2026-05-05 04:39 | 45.32120 | -75.65991 | 377 ft | 21 kts | 232° |
| 2026-05-05 04:40 | 45.32034 | -75.66152 | 375 ft | 20 kts | 243° |
| 2026-05-05 04:40 | 45.31977 | -75.66331 | 376 ft | 20 kts | 246° |
| 2026-05-05 04:40 | 45.31933 | -75.66509 | 376 ft | 19 kts | 267° |
| 2026-05-05 04:40 | 45.31989 | -75.66671 | 376 ft | 18 kts | 305° |
| 2026-05-05 04:41 | 45.32069 | -75.66808 | 376 ft | 18 kts | 327° |
| 2026-05-05 04:41 | 45.32138 | -75.66773 | 376 ft | 2 kts | 37° |
| 2026-05-05 04:41 | 45.32142 | -75.66770 | 376 ft | 0 kts | 37° |